^^
Station Historical Data
Daily Summary for August 6, 2017 Units:  English    Metric   Both
« Previous Day
Next Day »
Daily Weekly Monthly Yearly Custom
  High: Low: Average:
Temperature: 75.1 °F 60.5 °F 68.4 °F
Dew Point: 58.0 °F 52.9 °F 55.7 °F
Humidity: 82% 50% 65%
Wind Speed: 5.0mph 0.0mph 1.1mph
Wind Gust: 12.0mph - -
Wind- - SSW
Pressure: 30.12 in 29.98 in -
Precipitation: 0.00 in    
Historical Graphs
 
 
Tabular Data for August 6, 2017
Time Temperature Dew Point Pressure Wind Wind Speed Wind Gust Humidity Rainfall Rate (Hourly) Conditions
00:00 67.0 °F 56.1 °F 29.98 in South 2.0 mph 7.0 mph 68% 0.00 in RA
00:15 66.7 °F 55.8 °F 29.98 in Calm   7.0 mph 68% 0.00 in CLR
00:30 66.4 °F 55.9 °F 29.98 in Calm   5.0 mph 69% 0.00 in CLR
00:45 66.3 °F 56.2 °F 29.98 in South 1.0 mph 5.0 mph 70% 0.00 in CLR
01:00 65.8 °F 56.1 °F 29.98 in Calm   4.0 mph 71% 0.00 in CLR
01:15 65.6 °F 55.9 °F 29.98 in SSE 1.0 mph 4.0 mph 71% 0.00 in CLR
01:30 65.5 °F 55.8 °F 29.98 in SSE 2.0 mph 5.0 mph 71% 0.00 in CLR
01:45 65.6 °F 54.8 °F 29.98 in South 2.0 mph 7.0 mph 68% 0.00 in CLR
02:00 65.4 °F 55.0 °F 29.99 in SW 2.0 mph 6.0 mph 69% 0.00 in CLR
02:15 65.0 °F 54.6 °F 29.99 in Calm   3.0 mph 69% 0.00 in CLR
02:30 64.9 °F 54.5 °F 29.99 in NNE 1.0 mph 6.0 mph 69% 0.00 in CLR
02:45 64.6 °F 54.6 °F 29.99 in NW 1.0 mph 6.0 mph 70% 0.00 in CLR
03:00 64.6 °F 54.6 °F 29.99 in Calm   9.0 mph 70% 0.00 in CLR
03:30 64.2 °F 54.2 °F 30.00 in ESE 1.0 mph 3.0 mph 70% 0.00 in CLR
03:45 63.7 °F 54.1 °F 30.00 in Calm   4.0 mph 71% 0.00 in CLR
04:00 63.5 °F 54.3 °F 30.02 in SSW 2.0 mph 6.0 mph 72% 0.00 in CLR
04:15 62.7 °F 54.7 °F 30.02 in SW 1.0 mph 5.0 mph 75% 0.00 in CLR
04:30 62.0 °F 55.1 °F 30.02 in Calm   6.0 mph 78% 0.00 in CLR
05:00 60.7 °F 54.8 °F 30.02 in Calm   2.0 mph 81% 0.00 in CLR
05:15 60.5 °F 54.6 °F 30.03 in Calm   2.0 mph 81% 0.00 in CLR
05:30 60.6 °F 55.1 °F 30.03 in Calm   3.0 mph 82% 0.00 in CLR
05:45 61.1 °F 53.8 °F 30.03 in Calm   5.0 mph 77% 0.00 in CLR
06:00 61.6 °F 53.6 °F 30.04 in Calm   6.0 mph 75% 0.00 in CLR
06:15 61.7 °F 53.0 °F 30.05 in Calm   5.0 mph 73% 0.00 in CLR
06:30 62.1 °F 52.9 °F 30.05 in NW 1.0 mph 7.0 mph 72% 0.00 in CLR
07:00 62.3 °F 53.2 °F 30.06 in Calm   4.0 mph 72% 0.00 in CLR
07:15 62.5 °F 53.3 °F 30.06 in NE 1.0 mph 8.0 mph 72% 0.00 in CLR
07:45 63.1 °F 53.9 °F 30.07 in Calm   5.0 mph 72% 0.00 in CLR
08:00 63.9 °F 54.3 °F 30.08 in North 2.0 mph 5.0 mph 71% 0.00 in CLR
08:15 64.3 °F 54.3 °F 30.08 in Calm   7.0 mph 70% 0.00 in CLR
08:30 65.5 °F 54.7 °F 30.08 in WNW 1.0 mph 5.0 mph 68% 0.00 in CLR
08:45 66.2 °F 55.3 °F 30.09 in SSE 2.0 mph 7.0 mph 68% 0.00 in CLR
09:00 66.7 °F 56.2 °F 30.08 in Calm   8.0 mph 69% 0.00 in CLR
09:15 67.2 °F 56.7 °F 30.09 in SSW 1.0 mph 7.0 mph 69% 0.00 in FEW
09:30 67.4 °F 56.4 °F 30.09 in South 1.0 mph 5.0 mph 68% 0.00 in FEW
09:45 67.7 °F 55.9 °F 30.09 in SW 1.0 mph 5.0 mph 66% 0.00 in FEW
10:00 68.6 °F 56.3 °F 30.09 in NNW 1.0 mph 8.0 mph 65% 0.00 in FEW
10:15 69.0 °F 55.4 °F 30.10 in NW 1.0 mph 7.0 mph 62% 0.00 in FEW
10:30 69.7 °F 56.1 °F 30.10 in North 1.0 mph 12.0 mph 62% 0.00 in FEW
10:45 69.8 °F 55.3 °F 30.10 in WNW 1.0 mph 8.0 mph 60% 0.00 in FEW
11:00 69.2 °F 54.7 °F 30.10 in Calm   7.0 mph 60% 0.00 in FEW
11:15 69.6 °F 55.5 °F 30.09 in Calm   5.0 mph 61% 0.00 in FEW
11:30 70.0 °F 55.9 °F 30.09 in Calm   6.0 mph 61% 0.00 in FEW
11:45 70.3 °F 55.8 °F 30.09 in NNE 1.0 mph 4.0 mph 60% 0.00 in FEW
12:00 71.2 °F 55.2 °F 30.09 in NNW 2.0 mph 6.0 mph 57% 0.00 in FEW
12:15 72.4 °F 53.8 °F 30.10 in SW 2.0 mph 8.0 mph 52% 0.00 in FEW
12:30 72.8 °F 56.2 °F 30.10 in NW 2.0 mph 5.0 mph 56% 0.00 in FEW
12:45 73.1 °F 55.5 °F 30.09 in Calm   4.0 mph 54% 0.00 in FEW
13:00 73.1 °F 54.4 °F 30.09 in SW 5.0 mph 8.0 mph 52% 0.00 in FEW
13:15 73.8 °F 54.5 °F 30.10 in SSW 2.0 mph 8.0 mph 51% 0.00 in FEW
13:30 73.3 °F 55.2 °F 30.09 in SW 2.0 mph 7.0 mph 53% 0.00 in FEW
13:45 73.7 °F 56.0 °F 30.09 in WSW 3.0 mph 12.0 mph 54% 0.00 in FEW
14:00 73.8 °F 56.1 °F 30.09 in SW 2.0 mph 10.0 mph 54% 0.00 in FEW
14:15 73.8 °F 54.0 °F 30.09 in WNW 1.0 mph 7.0 mph 50% 0.00 in FEW
14:30 73.9 °F 54.1 °F 30.09 in SE 2.0 mph 8.0 mph 50% 0.00 in FEW
14:45 74.6 °F 57.4 °F 30.09 in WSW 2.0 mph 6.0 mph 55% 0.00 in FEW
15:00 74.1 °F 55.9 °F 30.08 in SW 1.0 mph 8.0 mph 53% 0.00 in FEW
15:15 73.8 °F 55.6 °F 30.08 in WSW 2.0 mph 7.0 mph 53% 0.00 in FEW
15:30 74.0 °F 54.8 °F 30.08 in SW 2.0 mph 10.0 mph 51% 0.00 in FEW
15:45 74.6 °F 56.3 °F 30.09 in SW 1.0 mph 7.0 mph 53% 0.00 in FEW
16:00 74.5 °F 55.7 °F 30.08 in SW 1.0 mph 9.0 mph 52% 0.00 in FEW
16:15 74.1 °F 54.3 °F 30.08 in SSW 2.0 mph 8.0 mph 50% 0.00 in FEW
16:30 73.8 °F 54.0 °F 30.08 in SSW 1.0 mph 9.0 mph 50% 0.00 in FEW
16:45 75.1 °F 55.2 °F 30.08 in SW 2.0 mph 6.0 mph 50% 0.00 in FEW
17:00 74.3 °F 54.5 °F 30.08 in SW 1.0 mph 8.0 mph 50% 0.00 in FEW
17:15 73.9 °F 54.7 °F 30.08 in SW 3.0 mph 7.0 mph 51% 0.00 in FEW
17:30 73.5 °F 55.8 °F 30.08 in SSW 2.0 mph 7.0 mph 54% 0.00 in FEW
17:45 73.4 °F 57.2 °F 30.08 in SSW 2.0 mph 8.0 mph 57% 0.00 in FEW
18:00 72.7 °F 57.5 °F 30.08 in SSW 2.0 mph 9.0 mph 59% 0.00 in FEW
18:15 72.6 °F 57.4 °F 30.08 in SSW 5.0 mph 9.0 mph 59% 0.00 in SCT
18:30 72.2 °F 57.5 °F 30.08 in SW 2.0 mph 9.0 mph 60% 0.00 in SCT
18:45 71.9 °F 57.7 °F 30.08 in SW 3.0 mph 7.0 mph 61% 0.00 in SCT
19:00 71.6 °F 57.4 °F 30.08 in South 2.0 mph 6.0 mph 61% 0.00 in SCT
19:15 71.4 °F 57.7 °F 30.09 in Calm   4.0 mph 62% 0.00 in FEW
19:30 70.9 °F 57.7 °F 30.09 in Calm   2.0 mph 63% 0.00 in FEW
19:45 70.5 °F 57.7 °F 30.09 in Calm   5.0 mph 64% 0.00 in FEW
20:00 70.2 °F 57.4 °F 30.10 in Calm   3.0 mph 64% 0.00 in FEW
20:15 69.6 °F 57.3 °F 30.10 in SSW 1.0 mph 4.0 mph 65% 0.00 in CLR
20:30 69.0 °F 58.0 °F 30.10 in Calm   3.0 mph 68% 0.00 in CLR
20:45 68.2 °F 57.6 °F 30.10 in Calm   1.0 mph 69% 0.00 in CLR
21:00 67.4 °F 57.7 °F 30.10 in Calm   1.0 mph 71% 0.00 in CLR
21:15 67.1 °F 57.4 °F 30.11 in Calm   1.0 mph 71% 0.00 in CLR
21:30 67.2 °F 57.5 °F 30.11 in SSW 1.0 mph 4.0 mph 71% 0.00 in CLR
21:45 67.0 °F 57.3 °F 30.11 in South 1.0 mph 6.0 mph 71% 0.00 in CLR
22:00 67.0 °F 57.3 °F 30.11 in SSW 1.0 mph 4.0 mph 71% 0.00 in CLR
22:15 66.8 °F 57.1 °F 30.12 in Calm   2.0 mph 71% 0.00 in CLR
22:30 66.8 °F 57.5 °F 30.12 in Calm   4.0 mph 72% 0.00 in CLR
22:45 66.8 °F 57.4 °F 30.12 in Calm   3.0 mph 72% 0.00 in CLR
23:00 66.7 °F 57.4 °F 30.12 in Calm   2.0 mph 72% 0.00 in CLR
23:15 66.3 °F 57.3 °F 30.12 in ESE 1.0 mph 3.0 mph 73% 0.00 in CLR
23:30 66.4 °F 57.5 °F 30.12 in Calm   5.0 mph 73% 0.00 in CLR
23:45 65.7 °F 57.6 °F 30.12 in SW 2.0 mph 6.0 mph 75% 0.00 in CLR
TarryTown NY Weather
Compliments of Weather Underground - 1.5 mb